Time;durP1;ratioP1;P1;durP2;ratioP2;P2;SDS_P1;SDS_P2;PMS_P1;PMS_P2;Temp;Humidity;BMP_temperature;BMP_pressure;BME280_temperature;BME280_humidity;BME280_pressure;Samples;Min_cycle;Max_cycle;Signal;HPM_P1;HPM_P2
2022/03/19 00:02:04;;;;;;;;;4.00;4.00;;;;;11.92;35.94;102818.22;6269197;22;45507;-77
2022/03/19 00:04:29;;;;;;;;;6.00;4.00;;;;;11.86;35.90;102792.19;6243246;22;45843;-75
2022/03/19 00:06:55;;;;;;;;;5.75;4.00;;;;;11.88;35.96;102802.59;6270899;22;46364;-78
2022/03/19 00:09:20;;;;;;;;;4.00;4.00;;;;;11.87;35.98;102806.19;6268484;22;45895;-75
2022/03/19 00:11:47;;;;;;;;;6.50;6.00;;;;;11.85;35.80;102802.75;6269863;22;45717;-77
2022/03/19 00:14:14;;;;;;;;;3.25;3.25;;;;;11.83;35.78;102805.44;6270285;22;45815;-77
2022/03/19 00:16:39;;;;;;;;;4.00;3.50;;;;;11.76;35.61;102789.09;6271148;22;45495;-76
2022/03/19 00:22:26;;;;;;;;;7.25;6.75;;;;;11.79;35.64;102790.72;6269765;22;45641;-77
2022/03/19 00:24:52;;;;;;;;;4.75;4.00;;;;;11.66;35.82;102785.06;6243504;22;45702;-77
2022/03/19 00:27:18;;;;;;;;;3.50;3.50;;;;;11.76;35.90;102802.22;6271019;22;45574;-78
2022/03/19 00:29:43;;;;;;;;;3.75;3.00;;;;;11.75;35.75;102803.13;6270931;22;45574;-77
2022/03/19 00:32:09;;;;;;;;;5.00;4.00;;;;;11.72;35.90;102805.84;6270720;22;45483;-76
2022/03/19 00:37:56;;;;;;;;;4.00;4.00;;;;;11.71;35.98;102804.13;6271243;22;45960;-76
2022/03/19 00:40:22;;;;;;;;;4.00;3.50;;;;;11.69;35.81;102794.63;6270319;22;46995;-75
2022/03/19 00:42:48;;;;;;;;;4.25;3.00;;;;;11.70;35.92;102796.34;6272936;22;45582;-76
2022/03/19 00:45:14;;;;;;;;;2.25;2.00;;;;;11.62;35.85;102791.38;6278982;22;45423;-76
2022/03/19 00:47:40;;;;;;;;;3.00;3.00;;;;;11.69;35.86;102799.88;6279155;22;46926;-76
2022/03/19 00:50:07;;;;;;;;;4.00;3.00;;;;;11.66;35.66;102798.19;6277765;22;46811;-77
2022/03/19 00:52:34;;;;;;;;;5.00;3.00;;;;;11.66;35.92;102805.25;6250638;22;45547;-75
2022/03/19 00:55:00;;;;;;;;;3.25;3.00;;;;;11.57;35.96;102787.22;6290033;22;45049;-75
2022/03/19 00:57:25;;;;;;;;;7.00;4.75;;;;;11.62;36.02;102799.25;6291889;22;46204;-77
2022/03/19 00:59:51;;;;;;;;;4.00;4.00;;;;;11.60;36.20;102787.97;6285118;22;46907;-77
2022/03/19 01:02:16;;;;;;;;;7.00;6.50;;;;;11.61;36.12;102786.19;6280693;22;45286;-77
2022/03/19 01:08:04;;;;;;;;;5.00;3.25;;;;;11.56;36.15;102781.13;6283120;22;45571;-75
2022/03/19 01:10:30;;;;;;;;;3.00;2.75;;;;;11.57;36.15;102784.59;6277719;22;46030;-76
2022/03/19 01:12:57;;;;;;;;;4.00;4.00;;;;;11.50;36.21;102776.09;6278088;22;45648;-77
2022/03/19 01:15:24;;;;;;;;;3.00;3.00;;;;;11.41;36.29;102768.63;6276866;22;45476;-76
2022/03/19 01:17:50;;;;;;;;;2.75;2.75;;;;;11.51;36.11;102771.72;6276572;22;46659;-77
2022/03/19 01:20:16;;;;;;;;;8.75;6.00;;;;;11.47;36.25;102775.38;6275877;22;46001;-76
2022/03/19 01:22:44;;;;;;;;;6.00;3.00;;;;;11.42;36.22;102766.84;6245439;22;45378;-77
2022/03/19 01:25:11;;;;;;;;;3.00;3.00;;;;;11.43;36.40;102768.56;6273199;22;45579;-75
2022/03/19 01:27:39;;;;;;;;;4.00;4.00;;;;;11.39;36.17;102769.59;6272518;22;46391;-75
2022/03/19 01:30:06;;;;;;;;;3.25;3.00;;;;;11.34;36.19;102773.25;6271968;22;47038;-75
2022/03/19 01:32:33;;;;;;;;;6.00;4.00;;;;;11.34;36.33;102765.38;6271373;22;45490;-77
2022/03/19 01:38:20;;;;;;;;;5.00;4.00;;;;;11.19;36.45;102762.50;6271528;22;45981;-76
2022/03/19 01:40:45;;;;;;;;;5.50;3.75;;;;;11.18;36.32;102752.91;6271175;22;47310;-78
2022/03/19 01:43:11;;;;;;;;;4.00;3.00;;;;;11.17;36.37;102757.34;6270712;22;45574;-76
2022/03/19 01:45:38;;;;;;;;;3.75;3.00;;;;;11.19;36.31;102765.97;6271453;22;45510;-76
2022/03/19 01:48:04;;;;;;;;;4.25;2.75;;;;;11.15;36.32;102753.03;6271119;22;47192;-76
2022/03/19 01:50:29;;;;;;;;;6.25;4.00;;;;;11.09;36.57;102745.41;6269968;22;46108;-77
2022/03/19 01:52:56;;;;;;;;;4.50;3.00;;;;;11.13;36.50;102757.50;6270808;22;45760;-76
2022/03/19 01:55:27;;;;;;;;;5.00;4.00;;;;;11.09;36.73;102754.13;6270680;22;45506;-75
2022/03/19 01:57:54;;;;;;;;;5.50;4.00;;;;;11.06;36.64;102746.41;6270947;22;45913;-76
2022/03/19 02:00:22;;;;;;;;;3.00;3.00;;;;;11.08;36.70;102764.69;6270940;22;46034;-76
2022/03/19 02:02:49;;;;;;;;;4.50;4.00;;;;;11.03;36.82;102746.50;6270748;22;45860;-76
2022/03/19 02:08:38;;;;;;;;;6.00;3.75;;;;;11.01;36.82;102744.88;6271385;22;46017;-75
2022/03/19 02:11:05;;;;;;;;;6.00;4.00;;;;;11.00;36.82;102745.78;6243542;22;48451;-74
2022/03/19 02:13:30;;;;;;;;;5.00;3.75;;;;;10.86;36.84;102725.31;6270109;22;45845;-75
2022/03/19 02:15:55;;;;;;;;;4.00;4.00;;;;;10.98;37.00;102747.59;6271608;22;45477;-75
2022/03/19 02:18:21;;;;;;;;;3.00;3.00;;;;;10.99;36.99;102751.94;6270964;22;46677;-75
2022/03/19 02:20:46;;;;;;;;;5.50;3.75;;;;;10.93;37.10;102738.13;6270319;22;46373;-75
2022/03/19 02:26:06;;;;;;;;;4.00;3.50;;;;;10.85;37.04;102713.97;6271458;22;45487;-75
2022/03/19 02:28:31;;;;;;;;;5.50;5.00;;;;;10.89;37.22;102723.44;6270659;22;47121;-75
2022/03/19 02:30:56;;;;;;;;;7.00;6.75;;;;;10.90;37.42;102740.03;6270633;22;47120;-76
2022/03/19 02:33:22;;;;;;;;;4.00;3.50;;;;;10.82;37.63;102719.34;6270118;22;45404;-75
2022/03/19 02:35:47;;;;;;;;;5.00;5.00;;;;;10.83;37.54;102721.06;6271564;22;45535;-74
2022/03/19 02:38:12;;;;;;;;;6.75;4.00;;;;;10.87;37.50;102724.41;6270523;22;47205;-75
2022/03/19 02:40:38;;;;;;;;;4.50;4.00;;;;;10.77;37.62;102699.44;6270893;22;45912;-76
2022/03/19 02:43:03;;;;;;;;;4.00;4.00;;;;;10.83;37.54;102707.94;6270700;22;45852;-76
2022/03/19 02:45:30;;;;;;;;;6.00;4.00;;;;;10.80;37.68;102700.19;6271572;22;45610;-76
2022/03/19 02:47:58;;;;;;;;;8.00;4.50;;;;;10.79;37.95;102708.97;6244509;22;46403;-77
2022/03/19 02:53:45;;;;;;;;;7.75;7.00;;;;;10.75;37.86;102704.75;6270449;22;45731;-76
2022/03/19 02:56:10;;;;;;;;;8.50;6.75;;;;;10.71;37.92;102692.66;6270804;22;45546;-76
2022/03/19 02:58:36;;;;;;;;;6.00;5.00;;;;;10.71;38.09;102697.06;6271388;22;46095;-77
2022/03/19 03:01:01;;;;;;;;;7.75;6.50;;;;;10.68;37.88;102699.81;6271154;22;46167;-77
2022/03/19 03:06:50;;;;;;;;;6.50;4.50;;;;;10.59;38.20;102685.25;6271186;22;45660;-77
2022/03/19 03:09:19;;;;;;;;;8.00;7.00;;;;;10.55;38.37;102675.81;6271321;22;45929;-75
2022/03/19 03:11:44;;;;;;;;;8.50;6.75;;;;;10.52;38.48;102684.66;6268325;22;48074;-76
2022/03/19 03:14:10;;;;;;;;;7.50;5.00;;;;;10.42;38.32;102667.56;6270340;22;45479;-76
2022/03/19 03:16:38;;;;;;;;;8.50;7.00;;;;;10.40;38.57;102672.00;6244455;22;45688;-76
2022/03/19 03:22:25;;;;;;;;;11.50;8.75;;;;;10.42;38.59;102692.91;6270102;22;45748;-76
2022/03/19 03:24:50;;;;;;;;;12.00;7.50;;;;;10.40;38.74;102692.13;6270559;22;45658;-78
2022/03/19 03:27:15;;;;;;;;;13.00;7.25;;;;;10.34;38.96;102684.47;6271251;22;45438;-76
2022/03/19 03:29:41;;;;;;;;;11.25;8.25;;;;;10.36;38.96;102694.00;6270085;22;47654;-79
2022/03/19 03:32:12;;;;;;;;;7.00;6.00;;;;;10.26;38.65;102676.88;6269469;22;45563;-77
2022/03/19 03:37:59;;;;;;;;;8.00;6.75;;;;;10.33;38.88;102681.00;6270591;22;45692;-76
2022/03/19 03:40:24;;;;;;;;;11.00;6.75;;;;;10.33;39.20;102677.53;6270076;22;46309;-74
2022/03/19 03:42:49;;;;;;;;;8.25;7.75;;;;;10.27;39.10;102667.25;6267774;22;47198;-76
2022/03/19 03:45:15;;;;;;;;;9.00;8.00;;;;;10.30;39.19;102670.66;6270305;22;45813;-75
2022/03/19 03:47:41;;;;;;;;;8.00;7.00;;;;;10.26;39.39;102670.78;6270430;22;45780;-77
2022/03/19 03:53:30;;;;;;;;;11.00;7.25;;;;;10.25;39.65;102671.72;6270541;22;45992;-78
2022/03/19 03:55:55;;;;;;;;;11.00;7.50;;;;;10.18;39.67;102668.47;6271130;22;45808;-77
2022/03/19 03:58:22;;;;;;;;;7.75;7.00;;;;;10.20;39.82;102685.00;6271384;22;45614;-77
2022/03/19 04:00:50;;;;;;;;;10.50;7.25;;;;;10.15;39.80;102665.09;6270821;22;46250;-77
2022/03/19 04:03:15;;;;;;;;;10.25;9.50;;;;;10.17;39.96;102677.22;6271134;22;45956;-76
2022/03/19 04:09:03;;;;;;;;;8.25;8.25;;;;;10.03;40.00;102651.53;6271895;22;45695;-74
2022/03/19 04:11:28;;;;;;;;;8.25;7.00;;;;;10.12;40.12;102673.91;6270622;22;46225;-77
2022/03/19 04:13:53;;;;;;;;;8.25;8.00;;;;;10.01;39.89;102655.94;6270523;22;46811;-76
2022/03/19 04:16:19;;;;;;;;;9.00;8.00;;;;;10.02;40.16;102662.91;6270360;22;45412;-78
2022/03/19 04:18:44;;;;;;;;;14.75;10.75;;;;;10.08;40.03;102672.31;6270366;22;45749;-77
2022/03/19 04:24:46;;;;;;;;;9.25;8.00;;;;;10.05;40.58;102664.53;6266409;22;46307;-76
2022/03/19 04:27:14;;;;;;;;;17.00;11.50;;;;;10.04;40.20;102673.34;6269774;22;45460;-76
2022/03/19 04:29:40;;;;;;;;;20.75;12.00;;;;;10.02;40.59;102670.75;6271545;22;45480;-76
2022/03/19 04:32:06;;;;;;;;;12.75;12.00;;;;;9.97;40.70;102658.75;6270686;22;46424;-77
2022/03/19 04:34:31;;;;;;;;;12.50;11.75;;;;;9.99;40.96;102676.09;6271703;22;46123;-77
2022/03/19 04:36:56;;;;;;;;;10.00;8.25;;;;;9.79;40.83;102633.19;6271275;22;45521;-77
2022/03/19 04:39:22;;;;;;;;;13.25;11.00;;;;;9.95;41.12;102671.88;6271897;22;45584;-77
2022/03/19 04:41:47;;;;;;;;;18.50;12.25;;;;;9.93;41.00;102667.63;6271088;22;46225;-76
2022/03/19 04:44:13;;;;;;;;;13.50;11.75;;;;;9.81;41.45;102655.81;6271921;22;46218;-76
2022/03/19 04:46:38;;;;;;;;;14.75;13.00;;;;;9.86;41.59;102669.59;6271262;22;45499;-75
2022/03/19 04:55:10;;;;;;;;;16.00;13.00;;;;;9.72;41.87;102647.44;6271224;22;46157;-76
2022/03/19 04:57:37;;;;;;;;;16.75;13.75;;;;;9.82;41.69;102664.53;6271279;22;45568;-77
2022/03/19 05:00:04;;;;;;;;;21.50;16.50;;;;;9.80;41.86;102664.56;6271429;22;45885;-76
2022/03/19 05:02:30;;;;;;;;;12.00;11.00;;;;;9.77;41.75;102658.59;6270587;22;46392;-75
2022/03/19 05:04:55;;;;;;;;;13.00;12.75;;;;;9.79;42.12;102675.06;6271052;22;46228;-75
2022/03/19 05:07:22;;;;;;;;;15.00;13.00;;;;;9.76;42.00;102654.25;6271823;22;45590;-77
2022/03/19 05:12:36;;;;;;;;;19.00;15.50;;;;;9.68;42.41;102650.13;6270896;22;45542;-76
2022/03/19 05:15:03;;;;;;;;;16.50;14.25;;;;;9.65;42.24;102650.25;6270815;22;46937;-77
2022/03/19 05:17:28;;;;;;;;;25.25;19.25;;;;;9.72;42.52;102657.91;6271656;22;45790;-76
2022/03/19 05:23:15;;;;;;;;;24.25;19.00;;;;;9.69;42.82;102659.69;6270407;22;45733;-76
2022/03/19 05:25:40;;;;;;;;;20.50;18.75;;;;;9.63;42.92;102657.28;6270557;22;46424;-78
2022/03/19 05:28:06;;;;;;;;;21.50;17.75;;;;;9.65;43.57;102657.25;6270923;22;45635;-75
2022/03/19 05:30:31;;;;;;;;;23.00;20.50;;;;;9.65;43.38;102662.47;6270933;22;45792;-76
2022/03/19 05:32:57;;;;;;;;;19.75;17.50;;;;;9.59;43.38;102654.84;6270255;22;46367;-76
2022/03/19 05:38:45;;;;;;;;;23.00;20.50;;;;;9.58;43.55;102658.34;6271254;22;45809;-75
2022/03/19 05:41:11;;;;;;;;;22.25;18.00;;;;;9.54;43.99;102659.38;6271237;22;45484;-76
2022/03/19 05:43:36;;;;;;;;;30.00;19.00;;;;;9.46;44.13;102641.31;6270624;22;47358;-76
2022/03/19 05:46:02;;;;;;;;;20.25;16.50;;;;;9.49;43.89;102645.59;6270916;22;46288;-75
2022/03/19 05:48:28;;;;;;;;;28.00;18.25;;;;;9.52;44.21;102655.94;6271904;22;45572;-76
2022/03/19 05:54:15;;;;;;;;;30.75;22.75;;;;;9.50;44.32;102663.00;6271238;22;45925;-75
2022/03/19 05:56:40;;;;;;;;;26.50;24.75;;;;;9.46;44.48;102654.38;6271063;22;45715;-75
2022/03/19 05:59:06;;;;;;;;;26.75;22.75;;;;;9.48;44.96;102664.81;6271288;22;45530;-77
2022/03/19 06:01:32;;;;;;;;;28.75;22.25;;;;;9.46;44.62;102666.59;6243374;22;45515;-75
2022/03/19 06:03:59;;;;;;;;;31.00;28.50;;;;;9.42;44.88;102655.41;6271138;22;46427;-76
2022/03/19 06:09:47;;;;;;;;;25.00;20.25;;;;;9.38;45.31;102658.19;6271433;22;45567;-76
2022/03/19 06:12:12;;;;;;;;;25.00;21.25;;;;;9.36;45.36;102659.97;6271357;22;45764;-76
2022/03/19 06:14:38;;;;;;;;;35.50;30.25;;;;;9.36;45.24;102667.81;6271266;22;45519;-76
2022/03/19 06:17:03;;;;;;;;;26.75;22.50;;;;;9.32;45.42;102668.84;6271555;22;45924;-76
2022/03/19 06:19:29;;;;;;;;;44.25;35.00;;;;;9.34;45.19;102661.81;6269195;22;45593;-76
2022/03/19 06:25:16;;;;;;;;;33.50;26.00;;;;;9.37;45.28;102659.06;6267199;22;46117;-76
2022/03/19 06:27:41;;;;;;;;;30.75;25.50;;;;;9.37;45.10;102669.53;6270866;22;46824;-76
2022/03/19 06:30:08;;;;;;;;;32.25;26.25;;;;;9.31;45.78;102661.88;6271030;22;45528;-76
2022/03/19 06:32:36;;;;;;;;;32.25;27.25;;;;;9.37;45.61;102686.09;6270612;22;45546;-76
2022/03/19 06:35:02;;;;;;;;;29.50;24.00;;;;;9.38;45.61;102672.13;6271330;22;45614;-76
2022/03/19 06:37:28;;;;;;;;;31.75;27.25;;;;;9.33;45.87;102668.78;6271004;22;46003;-77
2022/03/19 06:39:56;;;;;;;;;34.50;30.75;;;;;9.35;46.01;102664.34;6270509;22;45674;-75
2022/03/19 06:42:22;;;;;;;;;36.50;30.00;;;;;9.40;45.94;102674.66;6270781;22;45799;-77
2022/03/19 06:44:48;;;;;;;;;36.75;27.00;;;;;9.30;46.05;102649.72;6271338;22;45596;-76
2022/03/19 06:47:13;;;;;;;;;30.25;29.50;;;;;9.36;46.31;102657.34;6271167;22;45654;-76
2022/03/19 06:49:39;;;;;;;;;35.75;30.50;;;;;9.40;46.14;102664.19;6271081;22;45451;-76
2022/03/19 06:55:25;;;;;;;;;43.25;30.00;;;;;9.41;46.69;102673.75;6271005;22;45653;-77
2022/03/19 06:57:51;;;;;;;;;39.50;29.75;;;;;9.44;46.90;102676.28;6270303;22;46521;-76
2022/03/19 07:00:16;;;;;;;;;36.50;31.00;;;;;9.44;46.58;102668.44;6270603;22;45653;-77
2022/03/19 07:02:50;;;;;;;;;41.50;37.00;;;;;9.46;46.88;102677.94;6269972;22;45656;-76
2022/03/19 07:05:25;;;;;;;;;49.00;35.75;;;;;9.43;47.03;102656.25;6270893;22;45695;-76
2022/03/19 07:07:51;;;;;;;;;44.50;34.00;;;;;9.48;47.13;102663.06;6270226;22;46961;-75
2022/03/19 07:10:19;;;;;;;;;46.25;34.25;;;;;9.42;47.36;102657.16;6270332;22;45573;-75
2022/03/19 07:12:50;;;;;;;;;38.00;34.50;;;;;9.51;47.23;102668.16;6270662;22;45802;-76
2022/03/19 07:15:17;;;;;;;;;47.50;39.50;;;;;9.45;47.07;102652.66;6270616;22;45610;-77
2022/03/19 07:17:43;;;;;;;;;46.00;37.25;;;;;9.52;47.48;102672.50;6270879;22;45976;-75
2022/03/19 07:20:13;;;;;;;;;41.00;34.00;;;;;9.37;47.53;102639.00;6271134;22;45850;-77
2022/03/19 07:23:03;;;;;;;;;45.25;35.50;;;;;9.56;47.30;102662.78;6270159;22;45654;-77
2022/03/19 07:25:30;;;;;;;;;48.25;38.25;;;;;9.50;47.70;102652.53;6258783;22;45700;-75
2022/03/19 07:27:58;;;;;;;;;43.00;38.00;;;;;9.57;47.97;102660.09;6271130;22;45414;-77
2022/03/19 07:30:24;;;;;;;;;47.50;39.50;;;;;9.59;47.97;102670.53;6270408;22;45584;-79
2022/03/19 07:32:50;;;;;;;;;45.50;32.75;;;;;9.55;47.83;102648.00;6270881;22;45568;-76
2022/03/19 07:35:16;;;;;;;;;44.00;38.25;;;;;9.57;47.80;102660.09;6270174;22;46682;-78
2022/03/19 07:37:42;;;;;;;;;45.00;37.25;;;;;9.64;48.06;102666.00;6270247;22;46402;-78
2022/03/19 07:40:10;;;;;;;;;55.75;43.75;;;;;9.66;48.06;102666.81;6270442;22;45605;-76
2022/03/19 07:42:36;;;;;;;;;55.25;41.50;;;;;9.64;47.90;102664.25;6270397;22;45780;-76
2022/03/19 07:45:05;;;;;;;;;52.00;40.75;;;;;9.70;47.87;102668.41;6270647;22;45531;-76
2022/03/19 07:47:33;;;;;;;;;55.50;44.50;;;;;9.69;48.21;102666.69;6270228;22;47006;-77
2022/03/19 07:49:59;;;;;;;;;45.75;39.75;;;;;9.76;48.27;102664.72;6271269;22;45641;-77
2022/03/19 07:55:45;;;;;;;;;54.00;40.50;;;;;9.76;47.97;102654.25;6271781;22;45617;-78
2022/03/19 07:58:11;;;;;;;;;53.50;42.50;;;;;9.80;48.48;102661.09;6271619;22;46999;-76
2022/03/19 08:00:39;;;;;;;;;58.50;46.00;;;;;9.85;48.36;102661.78;6271433;22;45636;-75
2022/03/19 08:03:04;;;;;;;;;63.25;44.75;;;;;9.84;48.63;102645.22;6271549;22;45851;-76
2022/03/19 08:05:30;;;;;;;;;63.25;44.50;;;;;9.91;48.52;102656.34;6272150;22;45554;-77
2022/03/19 08:07:55;;;;;;;;;64.00;44.50;;;;;9.94;48.54;102656.22;6272625;22;45555;-77
2022/03/19 08:10:21;;;;;;;;;59.75;44.25;;;;;9.94;48.55;102651.84;6271537;22;45516;-76
2022/03/19 08:12:47;;;;;;;;;58.00;46.50;;;;;9.97;48.92;102651.75;6269701;22;45488;-76
2022/03/19 08:15:13;;;;;;;;;55.25;40.50;;;;;10.02;48.61;102654.19;6271297;22;46562;-78
2022/03/19 08:17:41;;;;;;;;;63.75;45.25;;;;;10.00;48.51;102638.53;6270585;22;46152;-77
2022/03/19 08:20:07;;;;;;;;;57.50;43.00;;;;;10.10;48.73;102657.38;6271753;22;45913;-76
2022/03/19 08:25:54;;;;;;;;;53.75;44.75;;;;;10.10;48.87;102639.03;6267816;22;45632;-78
2022/03/19 08:28:19;;;;;;;;;64.50;46.75;;;;;10.19;48.94;102645.75;6271161;22;46113;-78
2022/03/19 08:30:45;;;;;;;;;61.50;47.75;;;;;10.26;48.87;102648.06;6271449;22;45605;-76
2022/03/19 08:33:10;;;;;;;;;58.00;46.25;;;;;10.29;49.03;102639.25;6270647;22;46050;-76
2022/03/19 08:35:35;;;;;;;;;60.25;46.50;;;;;10.30;49.07;102633.13;6271834;22;46357;-78
2022/03/19 08:41:23;;;;;;;;;58.50;46.75;;;;;10.35;48.93;102626.78;6271167;22;45890;-78
2022/03/19 08:43:49;;;;;;;;;63.25;48.25;;;;;10.33;48.66;102612.03;6271340;22;45916;-77
2022/03/19 08:46:14;;;;;;;;;60.00;47.00;;;;;10.47;48.78;102630.72;6271839;22;45582;-77
2022/03/19 08:48:40;;;;;;;;;59.00;46.50;;;;;10.51;48.73;102627.91;6271792;22;45686;-77
2022/03/19 08:53:50;;;;;;;;;60.50;47.25;;;;;10.61;48.81;102638.91;6272077;22;45692;-77
2022/03/19 08:56:16;;;;;;;;;60.50;48.75;;;;;10.61;48.85;102628.41;6269953;22;47050;-77
2022/03/19 08:58:41;;;;;;;;;61.75;47.25;;;;;10.70;48.56;102632.44;6272242;22;46127;-78
2022/03/19 09:01:06;;;;;;;;;64.00;48.25;;;;;10.75;48.90;102638.34;6272126;22;45566;-75
2022/03/19 09:03:33;;;;;;;;;59.00;47.00;;;;;10.70;48.60;102616.69;6272591;22;45533;-76
2022/03/19 09:05:59;;;;;;;;;61.00;48.25;;;;;10.86;48.53;102636.16;6273071;22;46310;-77
2022/03/19 09:08:26;;;;;;;;;60.50;46.75;;;;;10.89;48.53;102636.06;6273505;22;46011;-76
2022/03/19 09:10:51;;;;;;;;;57.75;47.00;;;;;10.89;48.26;102626.41;6273337;22;45887;-78
2022/03/19 09:13:17;;;;;;;;;64.50;48.75;;;;;11.02;48.24;102636.38;6273558;22;45655;-76
2022/03/19 09:15:42;;;;;;;;;61.50;46.75;;;;;11.08;48.29;102634.38;6272998;22;45606;-79
2022/03/19 09:18:08;;;;;;;;;62.25;48.25;;;;;11.14;48.10;102638.53;6272540;22;45435;-78
2022/03/19 09:20:33;;;;;;;;;59.25;46.50;;;;;11.10;47.83;102614.19;6272511;22;45673;-77
2022/03/19 09:26:20;;;;;;;;;56.75;45.25;;;;;11.32;47.69;102627.28;6269178;22;45494;-77
2022/03/19 09:28:45;;;;;;;;;61.25;46.25;;;;;11.34;47.33;102620.19;6271941;22;45668;-78
2022/03/19 09:31:12;;;;;;;;;57.25;44.50;;;;;11.40;47.29;102617.31;6271182;22;45776;-78
2022/03/19 09:33:39;;;;;;;;;57.25;46.25;;;;;11.51;47.04;102614.22;6244303;22;45781;-78
2022/03/19 09:36:05;;;;;;;;;58.25;45.75;;;;;11.54;46.77;102612.34;6272341;22;46547;-76
2022/03/19 09:41:53;;;;;;;;;57.25;44.25;;;;;11.69;46.39;102622.16;6271306;22;45945;-77
2022/03/19 09:44:23;;;;;;;;;59.00;45.25;;;;;11.72;46.29;102618.53;6245343;22;45825;-77
2022/03/19 09:46:48;;;;;;;;;59.00;46.00;;;;;11.76;46.03;102613.16;6272239;22;45704;-77
2022/03/19 09:49:14;;;;;;;;;57.50;45.75;;;;;11.85;46.33;102605.78;6271194;22;46057;-76
2022/03/19 09:51:40;;;;;;;;;62.50;46.25;;;;;11.91;46.03;102608.97;6271493;22;45726;-78
2022/03/19 09:54:09;;;;;;;;;59.00;45.00;;;;;11.98;45.81;102606.94;6244383;22;45741;-77
2022/03/19 09:56:36;;;;;;;;;63.25;49.25;;;;;12.00;45.63;102600.69;6269516;22;46942;-78
2022/03/19 09:59:02;;;;;;;;;54.50;46.00;;;;;12.03;45.52;102589.19;6271201;22;46167;-77
2022/03/19 10:01:31;;;;;;;;;59.25;47.50;;;;;12.11;45.37;102597.56;6271412;22;45538;-77
2022/03/19 10:04:01;;;;;;;;;59.50;47.00;;;;;12.20;45.16;102603.25;6271159;22;45519;-78
2022/03/19 10:09:18;;;;;;;;;57.75;45.00;;;;;12.31;44.91;102600.13;6271425;22;45718;-76
2022/03/19 10:11:48;;;;;;;;;55.50;45.75;;;;;12.27;44.71;102582.81;6271618;22;45607;-77
2022/03/19 10:14:20;;;;;;;;;64.25;48.50;;;;;12.38;44.33;102584.94;6271005;22;45547;-77
2022/03/19 10:16:49;;;;;;;;;58.50;45.50;;;;;12.44;44.26;102580.25;6271115;22;46413;-78
2022/03/19 10:19:15;;;;;;;;;59.00;43.50;;;;;12.44;44.13;102576.75;6270946;22;46137;-77
2022/03/19 10:21:41;;;;;;;;;62.25;46.75;;;;;12.49;43.97;102580.88;6270398;22;45542;-77
2022/03/19 10:24:08;;;;;;;;;56.75;44.75;;;;;12.57;43.81;102573.50;6271532;22;45380;-76
2022/03/19 10:26:37;;;;;;;;;58.25;46.25;;;;;12.60;43.62;102570.69;6270914;22;45633;-77
2022/03/19 10:29:09;;;;;;;;;57.25;45.50;;;;;12.65;43.91;102578.34;6269662;22;46100;-77
2022/03/19 10:31:36;;;;;;;;;59.25;47.50;;;;;12.69;43.76;102574.66;6270184;22;45829;-77
2022/03/19 10:34:05;;;;;;;;;59.50;45.50;;;;;12.72;44.03;102557.88;6271133;22;45548;-78
2022/03/19 10:43:17;;;;;;;;;61.00;47.00;;;;;12.90;42.94;102563.06;6271223;22;45529;-77
2022/03/19 10:45:47;;;;;;;;;56.50;44.25;;;;;12.93;42.72;102554.19;6270950;22;45656;-77
2022/03/19 10:48:18;;;;;;;;;57.00;46.75;;;;;12.98;42.64;102547.78;6271137;22;47266;-77
2022/03/19 10:50:43;;;;;;;;;54.25;41.00;;;;;13.04;42.49;102554.50;6270209;22;47096;-77
2022/03/19 10:53:09;;;;;;;;;54.00;43.75;;;;;13.06;42.21;102542.13;6270680;22;45653;-76
2022/03/19 10:55:34;;;;;;;;;52.25;41.50;;;;;13.13;42.29;102543.53;6243809;22;45492;-78
2022/03/19 10:58:00;;;;;;;;;58.00;46.25;;;;;13.13;41.94;102540.91;6271858;22;46053;-78
2022/03/19 11:00:25;;;;;;;;;55.50;44.75;;;;;13.22;41.59;102545.72;6271056;22;45463;-78
2022/03/19 11:02:56;;;;;;;;;63.75;47.75;;;;;13.18;41.28;102525.75;6271049;22;45662;-79
2022/03/19 11:05:21;;;;;;;;;47.75;37.00;;;;;13.22;41.57;102524.69;6271001;22;45649;-77
2022/03/19 11:07:47;;;;;;;;;53.25;42.25;;;;;13.34;41.15;102534.53;6271704;22;46171;-78
2022/03/19 11:10:14;;;;;;;;;52.75;42.75;;;;;13.43;41.31;102535.88;6243855;22;46627;-77
2022/03/19 11:12:42;;;;;;;;;53.00;42.75;;;;;13.50;41.36;102531.09;6271031;22;45602;-78
2022/03/19 11:15:10;;;;;;;;;52.75;42.00;;;;;13.51;40.84;102522.28;6271908;22;45713;-76
2022/03/19 11:17:40;;;;;;;;;51.25;40.00;;;;;13.61;41.02;102528.75;6271447;22;45568;-78
2022/03/19 11:20:13;;;;;;;;;53.75;43.00;;;;;13.67;40.63;102520.53;6271635;22;46031;-77
2022/03/19 11:22:41;;;;;;;;;60.00;45.25;;;;;13.71;40.85;102522.09;6271214;22;45546;-78
2022/03/19 11:25:30;;;;;;;;;56.25;44.00;;;;;13.77;40.15;102517.31;6271411;22;45678;-77
2022/03/19 11:28:02;;;;;;;;;54.50;44.00;;;;;13.83;40.39;102521.41;6271367;22;46429;-78
2022/03/19 11:30:36;;;;;;;;;53.25;44.00;;;;;13.86;40.46;102503.69;6272358;22;45655;-77
2022/03/19 11:33:15;;;;;;;;;48.00;39.75;;;;;13.95;39.87;102504.94;6270650;22;45875;-79
2022/03/19 11:35:43;;;;;;;;;51.00;41.00;;;;;14.00;39.86;102505.53;6271890;22;45483;-78
2022/03/19 11:38:13;;;;;;;;;49.50;40.00;;;;;14.05;39.68;102507.91;6270913;22;46467;-77
2022/03/19 11:40:42;;;;;;;;;56.25;43.75;;;;;14.08;39.43;102503.34;6270070;22;47073;-77
2022/03/19 11:43:09;;;;;;;;;53.50;41.50;;;;;14.13;39.16;102498.69;6270911;22;45879;-79
2022/03/19 11:45:50;;;;;;;;;51.00;42.00;;;;;14.18;39.18;102498.41;6271327;22;45676;-77
2022/03/19 11:48:37;;;;;;;;;53.00;42.00;;;;;14.22;39.27;102487.59;6271112;22;46360;-76
2022/03/19 11:51:17;;;;;;;;;49.50;39.50;;;;;14.27;39.04;102492.63;6270744;22;46296;-77
2022/03/19 11:54:12;;;;;;;;;56.50;43.25;;;;;14.33;38.91;102488.78;6270858;22;45606;-77
2022/03/19 11:56:40;;;;;;;;;49.50;40.25;;;;;14.37;38.50;102482.41;6270593;22;45496;-76
2022/03/19 11:59:12;;;;;;;;;51.25;41.50;;;;;14.41;38.63;102486.59;6270391;22;47718;-78
2022/03/19 12:01:49;;;;;;;;;45.25;38.00;;;;;14.46;38.12;102488.03;6270872;22;46016;-79
2022/03/19 12:04:17;;;;;;;;;52.25;42.75;;;;;14.51;38.16;102478.06;6270642;22;45780;-77
2022/03/19 12:06:56;;;;;;;;;52.25;40.25;;;;;14.53;38.23;102473.53;6270853;22;45605;-77
2022/03/19 12:09:53;;;;;;;;;52.25;41.25;;;;;14.65;37.93;102472.00;6270367;22;46372;-78
2022/03/19 12:12:22;;;;;;;;;48.00;39.00;;;;;14.70;37.90;102454.09;6269893;22;46181;-78
2022/03/19 12:14:48;;;;;;;;;56.25;45.00;;;;;14.72;37.42;102444.31;6270377;22;45647;-77
2022/03/19 12:17:26;;;;;;;;;50.25;40.00;;;;;14.81;37.25;102459.59;6270696;22;45787;-77
2022/03/19 12:19:55;;;;;;;;;50.00;39.25;;;;;14.86;36.79;102446.13;6270857;22;45504;-78
2022/03/19 12:25:49;;;;;;;;;52.00;39.50;;;;;14.95;36.57;102442.97;6269847;22;45879;-78
2022/03/19 12:28:16;;;;;;;;;52.25;42.00;;;;;15.02;36.52;102445.13;6269958;22;45600;-79
2022/03/19 12:30:41;;;;;;;;;52.25;39.25;;;;;15.07;36.48;102429.84;6269855;22;45460;-78
2022/03/19 12:33:07;;;;;;;;;44.50;39.00;;;;;15.12;36.01;102429.56;6270662;22;45566;-78
2022/03/19 12:35:32;;;;;;;;;50.00;40.25;;;;;15.19;36.08;102424.75;6270762;22;45563;-78
2022/03/19 12:41:29;;;;;;;;;52.25;42.25;;;;;15.29;35.81;102410.03;6271818;22;45593;-78
2022/03/19 12:43:58;;;;;;;;;44.25;39.25;;;;;15.30;35.92;102403.81;6272139;22;45566;-77
2022/03/19 12:46:28;;;;;;;;;53.25;42.75;;;;;15.36;35.76;102395.53;6272596;22;45471;-77
2022/03/19 12:49:02;;;;;;;;;56.50;40.50;;;;;15.41;35.85;102390.78;6273486;22;45639;-75
2022/03/19 12:51:28;;;;;;;;;51.25;38.25;;;;;15.47;35.81;102390.41;6272537;22;46511;-76
2022/03/19 12:57:23;;;;;;;;;49.75;39.00;;;;;15.56;35.21;102371.38;6272635;22;45825;-78
2022/03/19 12:59:55;;;;;;;;;53.00;42.25;;;;;15.61;35.27;102369.28;6272622;22;45706;-75
2022/03/19 13:02:21;;;;;;;;;48.00;39.00;;;;;15.63;35.34;102348.91;6271635;22;46422;-76
2022/03/19 13:04:47;;;;;;;;;50.75;39.50;;;;;15.63;34.61;102342.75;6274550;22;45562;-78
2022/03/19 13:07:14;;;;;;;;;48.50;39.25;;;;;15.73;34.92;102355.28;6276824;22;45495;-77
2022/03/19 13:13:04;;;;;;;;;52.50;41.25;;;;;15.79;34.30;102335.53;6280292;22;45452;-76